Time;durP1;ratioP1;P1;durP2;ratioP2;P2;SDS_P1;SDS_P2;PMS_P1;PMS_P2;Temp;Humidity;BMP_temperature;BMP_pressure;BME280_temperature;BME280_humidity;BME280_pressure;Samples;Min_cycle;Max_cycle;Signal;HPM_P1;HPM_P2
2021/04/21 00:01:32;;;;;;;18.05;6.90;;;1.70;99.90;;;-0.04;96.16;101115.44;4868628;28;20107;-80
2021/04/21 00:03:56;;;;;;;17.45;6.30;;;1.60;99.90;;;-0.12;96.53;101104.19;4869173;28;20535;-79
2021/04/21 00:06:20;;;;;;;21.02;6.45;;;1.60;99.90;;;-0.11;96.40;101108.50;4868639;28;20084;-80
2021/04/21 00:08:45;;;;;;;22.15;6.47;;;1.60;99.90;;;-0.10;97.21;101103.34;4867647;28;20092;-80
2021/04/21 00:11:08;;;;;;;25.37;6.70;;;1.60;99.90;;;-0.16;97.03;101097.28;4868590;28;20100;-80
2021/04/21 00:13:33;;;;;;;16.23;6.50;;;1.60;99.90;;;-0.19;97.38;101102.41;4868786;28;20547;-80
2021/04/21 00:15:57;;;;;;;13.45;6.25;;;1.20;99.90;;;-0.21;97.64;101102.44;4867808;28;20087;-80
2021/04/21 00:18:21;;;;;;;15.80;5.37;;;1.50;99.90;;;-0.28;97.13;101100.66;4867400;28;20087;-80
2021/04/21 00:20:52;;;;;;;15.52;6.28;;;1.30;99.90;;;-0.45;96.92;101100.63;4867420;28;20518;-79
2021/04/21 00:23:15;;;;;;;18.00;6.45;;;1.20;99.90;;;-0.57;96.34;101101.41;4868590;28;20092;-80
2021/04/21 00:25:40;;;;;;;13.73;6.60;;;1.10;99.90;;;-0.67;96.52;101103.09;4867440;28;20118;-80
2021/04/21 00:28:07;;;;;;;20.20;6.97;;;1.00;99.90;;;-0.66;97.23;101096.19;4868852;28;20083;-80
2021/04/21 00:30:34;;;;;;;17.38;6.93;;;1.10;99.90;;;-0.67;97.71;101097.03;4863400;28;20095;-80
2021/04/21 00:32:59;;;;;;;17.50;6.97;;;1.10;99.90;;;-0.73;97.80;101091.84;4868597;28;20424;-80
2021/04/21 00:35:25;;;;;;;17.70;6.82;;;1.00;99.90;;;-0.74;97.96;101088.38;4868725;28;20094;-81
2021/04/21 00:37:53;;;;;;;26.73;7.28;;;1.10;99.90;;;-0.70;97.47;101094.44;4866863;28;20555;-81
2021/04/21 00:40:24;;;;;;;17.35;7.13;;;1.10;99.90;;;-0.63;97.72;101086.75;4867945;28;20131;-83
2021/04/21 00:43:01;;;;;;;17.08;7.07;;;1.20;99.90;;;-0.57;97.31;101085.03;4867915;28;20130;-80
2021/04/21 00:45:36;;;;;;;16.88;7.78;;;1.20;99.90;;;-0.51;97.25;101080.75;4867997;28;20165;-79
2021/04/21 00:48:08;;;;;;;21.08;7.63;;;1.30;99.90;;;-0.48;97.12;101085.91;4867376;28;20091;-80
2021/04/21 00:50:43;;;;;;;21.02;7.72;;;1.20;99.90;;;-0.57;97.22;101079.84;4866793;28;20598;-80
2021/04/21 00:53:15;;;;;;;18.95;8.20;;;1.10;99.90;;;-0.64;97.36;101082.41;4867689;28;20083;-80
2021/04/21 00:55:47;;;;;;;18.20;7.68;;;1.10;99.90;;;-0.58;96.90;101075.53;4868765;28;20088;-80
2021/04/21 00:58:21;;;;;;;21.48;7.85;;;1.30;99.90;;;-0.51;97.11;101074.72;4867456;28;20079;-80
2021/04/21 01:00:47;;;;;;;18.20;8.10;;;1.30;99.90;;;-0.52;96.75;101072.97;4867950;28;20086;-79
2021/04/21 01:03:18;;;;;;;24.70;8.32;;;1.20;99.90;;;-0.55;96.73;101067.78;4867890;28;20084;-80
2021/04/21 01:05:43;;;;;;;21.67;7.78;;;1.30;99.90;;;-0.47;96.75;101071.28;4868014;28;20091;-80
2021/04/21 01:08:12;;;;;;;22.38;8.40;;;1.20;99.90;;;-0.49;96.95;101070.41;4867350;28;20084;-79
2021/04/21 01:10:43;;;;;;;15.27;7.00;;;1.20;99.90;;;-0.55;97.09;101063.47;4867621;28;20088;-80
2021/04/21 01:13:06;;;;;;;21.35;7.80;;;1.20;99.90;;;-0.59;96.99;101066.06;4867640;28;20095;-80
2021/04/21 01:15:32;;;;;;;22.02;8.18;;;1.20;99.90;;;-0.62;97.04;101062.59;4866945;28;20095;-80
2021/04/21 01:17:58;;;;;;;15.95;8.20;;;1.20;99.90;;;-0.65;96.78;101059.13;4861719;28;20091;-80
2021/04/21 01:20:30;;;;;;;22.48;8.63;;;1.10;99.90;;;-0.66;96.74;101065.16;4867579;28;20126;-80
2021/04/21 01:23:43;;;;;;;20.88;7.70;;;1.10;99.90;;;-0.70;96.48;101061.69;4866890;28;20084;-80
2021/04/21 01:26:23;;;;;;;20.10;7.70;;;1.10;99.90;;;-0.73;96.42;101066.84;4868451;28;20088;-80
2021/04/21 01:28:52;;;;;;;20.58;8.55;;;1.10;99.90;;;-0.73;96.94;101060.81;4866195;28;20099;-80
2021/04/21 01:31:19;;;;;;;19.33;7.32;;;1.10;99.90;;;-0.77;97.35;101066.84;4866377;28;20096;-80
2021/04/21 01:33:48;;;;;;;17.60;6.68;;;1.00;99.90;;;-0.83;96.92;101067.66;4868186;28;20084;-81
2021/04/21 01:36:14;;;;;;;18.20;7.38;;;0.90;99.90;;;-0.90;96.95;101061.59;4872248;28;20165;-80
2021/04/21 01:38:39;;;;;;;19.67;7.43;;;0.80;99.90;;;-1.01;96.69;101067.56;4869787;28;20095;-80
2021/04/21 01:41:08;;;;;;;21.70;7.53;;;0.70;99.90;;;-1.09;96.57;101067.50;4872482;28;20501;-80
2021/04/21 01:43:37;;;;;;;15.00;6.95;;;0.60;99.90;;;-1.16;97.16;101071.75;4870408;28;20723;-80
2021/04/21 01:46:04;;;;;;;16.42;7.05;;;1.60;99.90;;;-1.21;96.30;101067.41;4872263;28;20110;-80
2021/04/21 01:48:29;;;;;;;23.05;7.18;;;0.60;99.90;;;-1.25;96.82;101064.81;4870468;28;20088;-80
2021/04/21 01:50:53;;;;;;;18.50;7.10;;;0.60;99.90;;;-1.17;97.41;101061.41;4871676;28;20084;-80
2021/04/21 01:53:35;;;;;;;17.30;7.53;;;0.60;99.90;;;-1.21;97.12;101065.69;4872246;28;20092;-80
2021/04/21 01:56:12;;;;;;;15.90;7.57;;;0.60;99.90;;;-1.18;97.72;101064.84;4870516;28;20530;-80
2021/04/21 01:59:04;;;;;;;18.67;7.03;;;0.70;99.90;;;-1.14;97.86;101059.72;4869774;28;20114;-80
2021/04/21 02:01:44;;;;;;;21.10;7.57;;;0.60;99.90;;;-1.18;97.91;101057.97;4869317;28;20084;-81
2021/04/21 02:04:23;;;;;;;26.05;9.30;;;0.70;99.90;;;-1.17;97.90;101057.09;4870045;28;20576;-80
2021/04/21 02:07:01;;;;;;;23.27;8.38;;;0.70;99.90;;;-1.08;98.36;101058.88;4870820;28;20447;-78
2021/04/21 02:09:50;;;;;;;21.20;8.15;;;0.70;99.90;;;-1.04;99.18;101052.88;4868039;28;20154;-80
2021/04/21 02:12:40;;;;;;;17.35;8.13;;;0.80;99.90;;;-1.05;99.24;101053.75;4868780;28;20084;-79
2021/04/21 02:15:11;;;;;;;30.27;9.52;;;0.80;99.90;;;-1.02;99.04;101046.00;4871998;28;20095;-80
2021/04/21 02:17:42;;;;;;;27.85;10.25;;;0.80;99.90;;;-1.00;98.67;101052.03;4869680;28;20463;-80
2021/04/21 02:20:15;;;;;;;30.63;13.02;;;0.80;99.90;;;-0.99;98.83;101051.19;4870245;28;20141;-80
2021/04/21 02:22:47;;;;;;;35.88;11.77;;;0.80;99.90;;;-1.00;98.98;101044.28;4871388;28;20163;-80
2021/04/21 02:25:27;;;;;;;32.30;11.50;;;0.80;99.90;;;-1.00;98.87;101041.69;4870330;28;20087;-80
2021/04/21 02:28:01;;;;;;;33.55;12.70;;;0.80;99.90;;;-1.00;98.70;101046.88;4868082;28;20106;-80
2021/04/21 02:30:33;;;;;;;29.02;11.65;;;0.80;99.90;;;-1.02;98.64;101037.38;4870482;28;20084;-80
2021/04/21 02:33:12;;;;;;;30.80;11.52;;;0.80;99.90;;;-1.06;98.71;101041.66;4868896;28;20092;-79
2021/04/21 02:35:44;;;;;;;31.08;11.70;;;0.70;99.90;;;-1.13;98.65;101035.59;4870915;28;20099;-80
2021/04/21 02:38:24;;;;;;;42.25;12.02;;;0.70;99.90;;;-1.17;97.91;101045.91;4868329;28;20100;-80
2021/04/21 02:41:03;;;;;;;35.85;11.93;;;0.60;99.90;;;-1.22;98.79;101029.50;4869404;28;20095;-79
2021/04/21 02:43:40;;;;;;;34.00;11.32;;;0.60;99.90;;;-1.25;98.66;101028.63;4869516;28;20080;-80
2021/04/21 02:46:17;;;;;;;27.60;11.50;;;0.60;99.90;;;-1.27;98.53;101030.34;4868965;28;20091;-80
2021/04/21 02:48:53;;;;;;;25.00;10.55;;;0.50;99.90;;;-1.30;98.79;101024.28;4869156;28;20536;-80
2021/04/21 02:51:25;;;;;;;36.95;12.27;;;0.50;99.90;;;-1.28;98.34;101028.59;4871050;28;20157;-80
2021/04/21 02:53:56;;;;;;;27.58;11.85;;;0.50;99.90;;;-1.30;98.42;101029.44;4870081;28;20083;-80
2021/04/21 02:56:30;;;;;;;32.00;12.50;;;0.60;99.90;;;-1.28;99.14;101030.31;4870406;28;20996;-80
2021/04/21 02:59:03;;;;;;;30.65;12.30;;;0.50;99.90;;;-1.32;99.06;101026.88;4867697;28;20542;-79
2021/04/21 03:01:38;;;;;;;31.10;12.77;;;0.50;99.90;;;-1.32;99.17;101025.97;4869987;28;20183;-80
2021/04/21 03:04:14;;;;;;;31.00;12.55;;;0.50;99.90;;;-1.28;99.18;101020.84;4869192;28;20088;-80
2021/04/21 03:06:41;;;;;;;41.05;13.60;;;0.50;99.90;;;-1.28;99.08;101022.56;4870388;28;20170;-79
2021/04/21 03:09:09;;;;;;;34.33;13.45;;;0.60;99.90;;;-1.20;98.79;101020.06;4869897;28;20091;-79
2021/04/21 03:11:33;;;;;;;32.40;12.80;;;0.60;99.90;;;-1.27;98.91;101027.75;4869801;28;20092;-80
2021/04/21 03:14:03;;;;;;;34.72;13.23;;;0.50;99.90;;;-1.34;98.95;101020.84;4868366;28;20099;-80
2021/04/21 03:16:30;;;;;;;33.88;12.80;;;0.50;99.90;;;-1.37;98.79;101023.38;4869597;28;20131;-79
2021/04/21 03:18:57;;;;;;;43.67;12.82;;;0.40;99.90;;;-1.37;98.44;101018.22;4869097;28;20161;-79
2021/04/21 03:21:27;;;;;;;37.85;13.05;;;0.40;99.90;;;-1.32;98.81;101007.91;4870194;28;20091;-80
2021/04/21 03:23:58;;;;;;;31.50;13.95;;;0.60;99.90;;;-1.26;99.73;101015.69;4870153;28;20075;-80
2021/04/21 03:26:23;;;;;;;45.13;13.60;;;0.60;99.90;;;-1.22;99.27;101007.13;4863947;28;20098;-77
2021/04/21 03:28:52;;;;;;;41.83;14.18;;;0.60;99.90;;;-1.18;99.37;101001.09;4867417;28;20553;-80
2021/04/21 03:31:17;;;;;;;44.05;14.95;;;0.60;99.90;;;-1.15;99.60;100998.53;4868521;28;20577;-80
2021/04/21 03:33:45;;;;;;;41.88;14.35;;;0.60;99.90;;;-1.20;99.20;100999.38;4865065;28;20083;-79
2021/04/21 03:36:08;;;;;;;38.58;14.65;;;0.50;99.90;;;-1.30;99.14;101007.06;4867529;28;20096;-80
2021/04/21 03:38:32;;;;;;;37.90;12.48;;;0.50;99.90;;;-1.36;99.03;101000.97;4869535;28;20095;-79
2021/04/21 03:40:55;;;;;;;44.13;15.00;;;0.40;99.90;;;-1.39;99.07;101006.13;4869982;28;20083;-80
2021/04/21 03:43:19;;;;;;;34.47;13.32;;;0.40;99.90;;;-1.52;98.78;100992.28;4869256;28;20084;-80
2021/04/21 03:45:49;;;;;;;27.83;12.02;;;0.20;99.90;;;-1.59;98.36;101001.69;4863846;28;20084;-80
2021/04/21 03:48:15;;;;;;;40.95;14.10;;;0.20;99.90;;;-1.58;98.67;100999.97;4865781;28;20095;-80
2021/04/21 03:50:39;;;;;;;31.48;11.68;;;0.30;99.90;;;-1.56;98.99;101001.72;4869581;28;20115;-80
2021/04/21 03:53:04;;;;;;;44.67;14.05;;;0.30;99.90;;;-1.54;99.04;101000.00;4869624;28;20115;-80
2021/04/21 03:55:30;;;;;;;36.60;12.00;;;0.30;99.90;;;-1.54;99.39;101001.72;4865081;28;20096;-79
2021/04/21 03:57:59;;;;;;;28.35;12.57;;;0.30;99.90;;;-1.47;99.73;100998.31;4869361;28;20099;-79
2021/04/21 04:00:24;;;;;;;32.80;12.02;;;0.50;99.90;;;-1.36;99.42;100999.28;4850435;28;20084;-80
2021/04/21 04:02:54;;;;;;;25.30;11.55;;;0.50;99.90;;;-1.31;100.00;100988.97;4869888;28;20084;-80
2021/04/21 04:05:23;;;;;;;25.45;10.85;;;0.60;99.90;;;-1.24;99.82;100996.75;4862537;28;20084;-80
2021/04/21 04:07:46;;;;;;;32.28;11.35;;;0.60;99.90;;;-1.22;99.58;100986.44;4868084;28;20163;-79
2021/04/21 04:10:14;;;;;;;30.88;11.85;;;0.60;99.90;;;-1.20;99.43;100989.91;4868893;28;20555;-80
2021/04/21 04:12:39;;;;;;;29.65;12.02;;;0.60;99.90;;;-1.17;99.41;100992.50;4869778;28;20083;-80
2021/04/21 04:15:06;;;;;;;31.45;11.25;;;0.70;99.90;;;-1.09;99.54;100988.22;4869334;28;20080;-80
2021/04/21 04:17:31;;;;;;;33.90;11.35;;;0.80;99.90;;;-1.04;99.47;100985.66;4866892;28;20157;-80
2021/04/21 04:19:55;;;;;;;32.60;12.73;;;0.80;99.90;;;-0.98;99.36;100987.44;4868401;28;20091;-80
2021/04/21 04:22:20;;;;;;;36.42;13.40;;;0.90;99.90;;;-0.91;99.38;100987.44;4869392;28;20080;-80
2021/04/21 04:24:45;;;;;;;31.08;11.85;;;0.90;99.90;;;-0.84;98.85;100983.19;4867282;28;20098;-79
2021/04/21 04:27:15;;;;;;;31.77;10.80;;;0.90;99.90;;;-0.79;99.03;100980.63;4849131;28;20463;-80
2021/04/21 04:29:38;;;;;;;24.27;10.82;;;1.00;99.90;;;-0.75;98.81;100993.56;4857079;28;20096;-79
2021/04/21 04:32:03;;;;;;;21.80;8.93;;;1.00;99.90;;;-0.74;98.57;100984.94;4867379;28;20091;-80
2021/04/21 04:34:29;;;;;;;21.45;10.27;;;1.00;99.90;;;-0.65;98.29;100991.88;4869086;28;20182;-80
2021/04/21 04:36:52;;;;;;;26.17;10.05;;;;;;;-0.58;97.90;100985.00;4868020;28;20122;-80
2021/04/21 04:39:15;;;;;;;25.30;10.60;;;1.20;99.90;;;-0.42;97.67;100986.78;4869541;28;20438;-79
2021/04/21 04:41:40;;;;;;;30.90;11.98;;;1.50;99.90;;;-0.05;97.90;100989.44;4867539;28;20138;-79
2021/04/21 04:44:04;;;;;;;35.97;13.95;;;2.00;99.90;;;0.73;97.76;100976.44;4869383;28;20098;-80
2021/04/21 04:46:30;;;;;;;35.08;15.30;;;3.00;99.90;;;1.91;92.70;100969.84;4868854;28;20167;-80
2021/04/21 04:49:02;;;;;;;37.92;16.05;;;4.20;99.90;;;3.15;88.17;100975.59;4868716;28;20152;-80
2021/04/21 04:51:25;;;;;;;40.42;15.95;;;5.30;99.90;;;4.23;82.36;100971.47;4855007;28;20484;-80
2021/04/21 04:53:49;;;;;;;39.85;15.45;;;6.10;99.90;;;5.06;78.07;100978.66;4868569;28;20097;-81
2021/04/21 04:56:14;;;;;;;30.02;14.00;;;6.80;99.90;;;5.84;75.21;100972.66;4867623;28;20115;-81
2021/04/21 04:58:39;;;;;;;23.65;11.15;;;7.70;99.90;;;6.72;73.30;100979.25;4868875;28;20079;-81
2021/04/21 05:01:08;;;;;;;23.60;10.55;;;8.40;99.90;;;7.27;68.82;100971.59;4848253;28;20113;-81
2021/04/21 05:03:41;;;;;;;23.17;9.35;;;8.60;99.90;;;7.80;66.30;100969.16;4862283;28;20482;-81
2021/04/21 05:06:05;;;;;;;23.20;9.13;;;9.20;99.90;;;8.36;64.14;100978.72;4865251;28;20087;-81
2021/04/21 05:08:37;;;;;;;19.98;9.75;;;9.80;99.90;;;9.04;62.13;100977.25;4868945;28;20085;-81
2021/04/21 05:11:03;;;;;;;23.38;9.18;;;10.70;99.90;;;9.82;60.89;100973.44;4870927;28;20048;-81
2021/04/21 05:13:33;;;;;;;18.42;9.35;;;10.40;99.90;;;9.55;58.85;100970.97;4872652;28;20099;-81
2021/04/21 05:16:31;;;;;;;18.42;9.65;;;9.30;99.90;;;8.96;61.69;100979.28;4872773;28;20498;-81
2021/04/21 05:19:48;;;;;;;19.67;10.32;;;9.00;99.90;;;8.93;61.96;100979.41;4870036;28;20548;-78
2021/04/21 05:23:08;;;;;;;21.80;10.02;;;9.40;99.90;;;9.39;59.99;100981.19;4855623;28;20053;-81
2021/04/21 05:26:17;;;;;;;17.48;9.60;;;10.10;99.90;;;10.43;57.21;100975.38;4871399;28;20053;-81
2021/04/21 05:29:19;;;;;;;20.10;9.30;;;10.90;99.90;;;11.22;54.25;100976.31;4869856;28;20109;-81
2021/04/21 05:32:49;;;;;;;18.75;8.52;;;11.90;99.90;;;12.34;53.04;100979.88;4869670;28;20056;-81
2021/04/21 05:36:06;;;;;;;17.98;9.57;;;13.20;99.90;;;13.25;50.09;100982.16;4809140;28;20050;-81
2021/04/21 05:39:54;;;;;;;13.65;8.27;;;13.70;99.90;;;13.50;49.77;100973.81;4872797;28;20428;-81
2021/04/21 05:43:07;;;;;;;16.58;8.55;;;13.90;99.90;;;13.97;49.55;100977.34;4868968;28;20463;-81
2021/04/21 05:46:32;;;;;;;17.58;8.70;;;14.80;99.90;;;14.84;47.43;100979.38;4854443;28;20541;-81
2021/04/21 05:49:30;;;;;;;13.90;7.60;;;15.60;99.90;;;15.52;46.04;100977.84;4873731;28;20048;-81
2021/04/21 05:52:14;;;;;;;15.48;7.88;;;15.60;99.90;;;15.78;47.38;100974.41;4868735;28;20068;-81
2021/04/21 05:55:05;;;;;;;14.80;7.65;;;16.40;99.90;;;15.45;45.81;100972.09;4870600;28;20041;-81
2021/04/21 05:58:24;;;;;;;15.82;7.70;;;16.70;99.90;;;15.85;44.07;100960.75;4870407;28;20097;-81
2021/04/21 06:01:24;;;;;;;13.88;7.10;;;16.60;99.90;;;15.66;44.78;100969.00;4871432;28;20575;-81
2021/04/21 06:03:51;;;;;;;16.48;7.47;;;16.50;99.90;;;16.10;44.85;100968.81;4870621;28;20045;-81
2021/04/21 06:06:14;;;;;;;15.70;7.95;;;17.10;99.90;;;16.54;43.55;100967.66;4872322;28;20064;-81
2021/04/21 06:08:37;;;;;;;12.43;7.97;;;17.00;99.90;;;16.36;43.86;100966.22;4870957;28;20046;-81
2021/04/21 06:11:01;;;;;;;13.70;7.82;;;16.60;99.90;;;15.67;45.60;100963.59;4870574;28;20057;-80
2021/04/21 06:13:29;;;;;;;12.57;7.88;;;15.70;99.90;;;14.49;48.85;100982.31;4870019;28;20057;-81
2021/04/21 06:15:52;;;;;;;12.63;7.35;;;15.00;99.90;;;13.77;49.05;100973.19;4869751;28;20068;-81
2021/04/21 06:18:15;;;;;;;14.63;7.65;;;14.70;99.90;;;13.88;49.66;100965.50;4870699;28;20049;-81
2021/04/21 06:20:41;;;;;;;13.55;7.80;;;14.60;99.90;;;13.14;50.81;100979.25;4871769;28;20480;-80
2021/04/21 06:23:10;;;;;;;14.07;7.90;;;13.60;99.90;;;11.50;56.42;100980.31;4867951;28;20060;-80
2021/04/21 06:25:33;;;;;;;16.40;8.32;;;12.10;99.90;;;9.82;63.56;100987.44;4869661;28;20504;-80
2021/04/21 06:28:16;;;;;;;17.42;9.00;;;11.40;99.90;;;9.88;66.90;100990.75;4869966;28;20045;-80
2021/04/21 06:30:39;;;;;;;17.67;9.52;;;11.20;99.90;;;9.86;66.52;100993.44;4869768;28;20057;-80
2021/04/21 06:33:04;;;;;;;20.35;9.57;;;10.80;99.90;;;8.92;68.05;100990.81;4869651;28;20053;-80
2021/04/21 06:35:30;;;;;;;18.45;9.75;;;10.60;99.90;;;9.65;67.98;100982.84;4870031;28;20099;-79
2021/04/21 06:37:53;;;;;;;;;;;10.90;99.90;;;9.88;68.56;100981.09;4858056;28;20053;-78
2021/04/21 06:40:17;;;;;;;20.48;9.95;;;11.50;99.90;;;10.77;64.20;100989.75;4871208;28;19929;-80
2021/04/21 06:42:40;;;;;;;20.67;10.20;;;12.50;99.90;;;12.42;61.33;100975.91;4849067;28;20042;-80
2021/04/21 06:45:05;;;;;;;19.73;9.70;;;13.50;99.90;;;13.14;57.26;100974.81;4853026;28;20117;-80
2021/04/21 06:47:29;;;;;;;19.55;10.35;;;14.00;99.90;;;13.12;56.36;100978.47;4867795;28;20041;-80
2021/04/21 06:50:01;;;;;;;18.83;9.88;;;14.00;99.90;;;13.26;56.19;100977.72;4870067;28;20056;-79
2021/04/21 06:52:32;;;;;;;21.80;10.98;;;14.10;99.90;;;13.45;56.65;100978.47;4867015;28;20053;-80
2021/04/21 06:55:04;;;;;;;19.98;9.88;;;14.20;99.90;;;13.01;56.53;100972.91;4863104;28;20042;-80
2021/04/21 06:57:29;;;;;;;17.70;11.05;;;14.10;99.90;;;13.25;56.56;100976.03;4866984;28;20151;-78
2021/04/21 07:00:06;;;;;;;20.17;10.85;;;14.60;99.90;;;13.93;54.31;100978.47;4854239;28;20930;-80
2021/04/21 07:02:39;;;;;;;24.42;11.23;;;15.00;99.90;;;14.77;53.89;100978.03;4866983;28;20493;-80
2021/04/21 07:05:02;;;;;;;18.13;10.32;;;16.10;99.90;;;15.51;48.75;100971.69;4869665;28;20044;-79
2021/04/21 07:07:26;;;;;;;18.35;10.38;;;15.90;99.90;;;15.35;50.95;100978.91;4869575;28;20057;-80
2021/04/21 07:09:49;;;;;;;18.73;10.85;;;16.00;99.90;;;15.81;51.61;100977.81;4870074;28;20042;-81
2021/04/21 07:12:12;;;;;;;17.88;10.32;;;16.00;99.90;;;14.84;51.94;100981.16;4864823;28;20068;-79
2021/04/21 07:14:36;;;;;;;18.58;10.90;;;15.60;99.90;;;15.65;51.95;100972.63;4870391;28;20041;-78
2021/04/21 07:17:00;;;;;;;17.38;9.38;;;16.60;99.90;;;17.86;45.54;100973.53;4869133;28;20045;-78
2021/04/21 07:19:25;;;;;;;17.88;10.73;;;18.00;99.90;;;18.41;43.10;100974.72;4869184;28;20053;-79
2021/04/21 07:21:48;;;;;;;16.83;9.40;;;17.60;99.90;;;16.44;46.38;100982.50;4869168;28;20393;-80
2021/04/21 07:24:13;;;;;;;21.63;10.38;;;16.80;99.90;;;16.46;47.51;100980.59;4869814;28;20053;-80
2021/04/21 07:26:39;;;;;;;18.80;10.53;;;16.60;99.90;;;16.43;48.31;100975.47;4868250;28;20041;-81
2021/04/21 07:29:03;;;;;;;19.85;10.40;;;16.70;99.90;;;16.30;48.24;100982.56;4868433;28;20038;-80
2021/04/21 07:31:26;;;;;;;20.55;11.48;;;16.50;99.90;;;16.21;48.39;100978.72;4869522;28;20050;-80
2021/04/21 07:33:51;;;;;;;19.08;10.95;;;16.80;99.90;;;17.25;46.62;100975.25;4866123;28;20049;-80
2021/04/21 07:36:17;;;;;;;19.80;11.13;;;17.10;99.90;;;16.03;46.57;100972.84;4867910;28;20473;-81
2021/04/21 07:38:43;;;;;;;20.17;11.18;;;16.70;99.90;;;17.15;46.40;100977.72;4868142;28;20049;-81
2021/04/21 07:41:06;;;;;;;22.10;11.68;;;17.40;99.90;;;17.00;44.78;100969.84;4869668;28;20053;-80
2021/04/21 07:43:39;;;;;;;20.73;10.48;;;17.40;99.90;;;16.65;45.94;100974.03;4866669;28;20386;-80
2021/04/21 07:46:03;;;;;;;20.42;11.27;;;16.70;99.90;;;16.17;49.13;100974.56;4868954;28;20045;-80
2021/04/21 07:48:46;;;;;;;21.70;12.02;;;16.30;99.90;;;15.77;50.58;100980.69;4868178;28;20127;-80
2021/04/21 07:51:42;;;;;;;19.65;11.50;;;16.20;99.90;;;16.12;48.39;100976.69;4867059;28;20057;-80
2021/04/21 07:54:17;;;;;;;19.92;11.10;;;16.50;99.90;;;16.05;48.63;100976.25;4868072;28;20122;-79
2021/04/21 07:57:02;;;;;;;20.83;11.90;;;16.70;99.90;;;18.07;45.56;100976.41;4849601;28;20358;-81
2021/04/21 07:59:28;;;;;;;20.70;11.25;;;18.10;99.90;;;20.35;40.27;100964.72;4866530;28;20049;-80
2021/04/21 08:01:54;;;;;;;23.48;11.63;;;18.10;99.90;;;17.47;45.39;100970.06;4867812;28;20296;-79
2021/04/21 08:04:23;;;;;;;18.02;10.38;;;17.20;99.90;;;16.96;47.39;100978.13;4867347;28;20073;-80
2021/04/21 08:06:49;;;;;;;23.35;12.25;;;17.20;99.90;;;18.70;44.44;100978.81;4867872;28;20159;-79
2021/04/21 08:09:12;;;;;;;19.27;10.55;;;17.50;99.90;;;17.15;45.72;100980.38;4868465;28;20485;-80
2021/04/21 08:11:35;;;;;;;21.27;11.57;;;17.50;99.90;;;18.28;43.84;100981.13;4868208;28;20048;-82
2021/04/21 08:13:58;;;;;;;24.67;12.35;;;17.50;99.90;;;17.71;46.31;100975.47;4867888;28;20412;-81
2021/04/21 08:16:22;;;;;;;21.90;11.85;;;17.40;99.90;;;18.10;44.22;100973.53;4867682;28;20041;-79
2021/04/21 08:18:45;;;;;;;21.33;11.95;;;17.90;99.90;;;18.53;44.46;100970.31;4868691;28;20477;-80
2021/04/21 08:21:08;;;;;;;19.15;11.27;;;18.20;99.90;;;20.04;40.59;100959.25;4868025;28;20497;-81
2021/04/21 08:23:32;;;;;;;19.75;11.50;;;19.10;99.90;;;20.87;36.80;100965.63;4865923;28;20496;-80
2021/04/21 08:25:54;;;;;;;20.60;11.60;;;19.40;99.90;;;20.94;38.08;100959.75;4869014;28;20045;-78
2021/04/21 08:28:19;;;;;;;20.95;10.82;;;18.40;99.90;;;18.18;45.72;100976.44;4868016;28;20484;-80
2021/04/21 08:30:54;;;;;;;22.88;11.27;;;17.40;99.90;;;16.81;47.83;100969.41;4862285;28;20065;-81
2021/04/21 08:33:17;;;;;;;19.50;11.65;;;17.00;99.90;;;17.99;46.44;100968.13;4847818;28;20063;-80
2021/04/21 08:35:40;;;;;;;20.00;11.52;;;18.00;99.90;;;19.35;41.58;100963.97;4847505;28;20046;-81
2021/04/21 08:38:03;;;;;;;24.27;12.32;;;17.60;99.90;;;18.38;45.21;100977.66;4848700;28;20053;-80
2021/04/21 08:40:26;;;;;;;20.27;11.23;;;18.00;99.90;;;18.81;44.54;100978.84;4849341;28;20049;-80
2021/04/21 08:42:56;;;;;;;23.25;12.05;;;17.80;99.90;;;16.57;48.38;100980.72;4866436;28;20049;-79
2021/04/21 08:45:20;;;;;;;24.02;13.20;;;17.00;99.90;;;16.72;49.72;100983.31;4839601;28;20065;-81
2021/04/21 08:47:43;;;;;;;27.48;12.40;;;17.30;99.90;;;18.68;44.21;100975.41;4866511;28;20041;-81
2021/04/21 08:50:08;;;;;;;21.95;12.45;;;18.20;99.90;;;19.52;42.43;100973.31;4868280;28;20045;-81
2021/04/21 08:52:43;;;;;;;21.33;12.55;;;18.50;99.90;;;18.95;42.19;100973.31;4869464;28;20038;-81
2021/04/21 08:55:08;;;;;;;21.85;12.48;;;17.90;99.90;;;17.66;48.13;100982.91;4866083;28;20052;-79
2021/04/21 08:57:32;;;;;;;25.02;12.20;;;17.10;99.90;;;15.91;48.86;100989.56;4867642;28;20060;-79
2021/04/21 08:59:56;;;;;;;27.15;13.35;;;16.60;99.90;;;15.53;50.35;100991.03;4867101;28;20052;-78
2021/04/21 09:02:20;;;;;;;26.63;13.65;;;16.80;99.90;;;17.01;49.52;100987.47;4825227;28;20042;-81
2021/04/21 09:05:08;;;;;;;27.15;14.20;;;17.10;99.90;;;17.48;46.09;100984.25;4823466;28;20054;-80
2021/04/21 09:07:45;;;;;;;28.77;13.27;;;17.50;99.90;;;17.63;48.21;100981.34;4808926;28;20484;-81
2021/04/21 09:10:47;;;;;;;27.88;12.73;;;18.20;99.90;;;18.55;45.46;100971.03;4821485;28;20053;-78
2021/04/21 09:16:47;;;;;;;25.52;13.75;;;17.20;99.90;;;16.17;52.44;100983.38;4814850;28;20041;-80
2021/04/21 09:23:31;;;;;;;28.05;13.48;;;17.00;99.90;;;15.77;51.93;100985.16;4807988;28;20064;-81
2021/04/21 09:29:35;;;;;;;28.25;13.10;;;15.30;99.90;;;13.90;56.69;100983.94;4827722;28;20389;-79
2021/04/21 09:39:42;;;;;;;24.10;12.25;;;15.60;99.90;;;13.94;55.27;100974.91;4837677;28;20457;-79
2021/04/21 09:42:09;;;;;;;24.20;12.35;;;15.90;99.90;;;15.34;53.94;100972.75;4816666;28;20052;-81
2021/04/21 09:44:47;;;;;;;27.58;12.50;;;16.50;99.90;;;15.89;49.35;100964.91;4810674;28;20054;-79
2021/04/21 09:47:45;;;;;;;23.00;12.65;;;16.90;99.90;;;16.14;50.72;100970.31;4816812;28;20041;-79
2021/04/21 09:50:30;;;;;;;27.88;11.63;;;16.70;99.90;;;15.20;49.92;100972.75;4833949;28;20049;-80
2021/04/21 09:54:07;;;;;;;28.13;12.00;;;16.50;99.90;;;15.22;49.81;100954.09;4799676;28;20052;-80
2021/04/21 10:04:19;;;;;;;23.52;12.32;;;17.30;99.90;;;16.56;48.01;100947.13;4819122;28;20137;-82
2021/04/21 10:07:39;;;;;;;20.02;9.48;;;17.60;99.90;;;16.94;48.10;100948.13;4795445;28;20100;-80
2021/04/21 10:10:54;;;;;;;18.45;9.20;;;16.90;99.90;;;15.27;49.73;100944.91;4818605;28;20041;-78
2021/04/21 10:16:52;;;;;;;17.63;9.75;;;16.90;99.90;;;16.15;50.22;100940.13;4818512;28;21555;-80
2021/04/21 10:19:58;;;;;;;23.35;10.27;;;17.30;99.90;;;15.88;49.43;100936.66;4814642;28;20477;-80
2021/04/21 10:22:33;;;;;;;18.73;9.23;;;16.90;99.90;;;16.12;49.92;100934.19;4823450;28;20421;-81
2021/04/21 10:26:11;;;;;;;23.75;10.70;;;16.70;99.90;;;15.31;52.41;100937.59;4817737;28;20386;-81
2021/04/21 10:28:42;;;;;;;24.17;10.30;;;16.10;99.90;;;14.70;53.03;100942.25;4826958;28;20046;-78
2021/04/21 10:31:28;;;;;;;18.60;9.85;;;16.20;99.90;;;15.12;52.13;100938.78;4819450;28;20056;-80
2021/04/21 10:37:58;;;;;;;18.33;9.52;;;15.40;99.90;;;13.85;54.42;100938.38;4812491;28;20100;-78
2021/04/21 10:41:32;;;;;;;18.38;9.73;;;15.10;99.90;;;13.82;58.45;100944.69;4816550;28;20054;-80
2021/04/21 10:44:16;;;;;;;20.42;9.70;;;15.00;99.90;;;13.95;58.38;100937.75;4826508;28;20477;-81
2021/04/21 10:54:26;;;;;;;19.13;10.30;;;15.70;99.90;;;15.79;52.28;100932.81;4824604;28;20058;-81
2021/04/21 10:56:48;;;;;;;19.73;10.85;;;16.50;99.90;;;15.54;51.70;100938.81;4865020;28;20061;-79
2021/04/21 10:59:11;;;;;;;19.77;9.60;;;16.10;99.90;;;14.53;53.97;100945.88;4870406;28;20119;-79
2021/04/21 11:01:37;;;;;;;19.38;10.90;;;15.90;99.90;;;14.84;51.86;100950.22;4870500;28;20054;-81
2021/04/21 11:04:01;;;;;;;19.55;10.98;;;15.90;99.90;;;15.16;52.85;100937.63;4868633;28;20041;-80
2021/04/21 11:06:47;;;;;;;20.45;10.68;;;16.30;99.90;;;15.47;52.60;100932.19;4869024;28;20060;-82
2021/04/21 11:09:13;;;;;;;20.57;10.83;;;16.60;99.90;;;15.72;53.68;100934.13;4868573;28;20909;-77
2021/04/21 11:11:39;;;;;;;20.77;12.05;;;16.60;99.90;;;15.76;53.47;100935.66;4852475;28;20451;-83
2021/04/21 11:14:02;;;;;;;18.50;11.18;;;16.30;99.90;;;15.79;53.16;100938.13;4868077;28;20499;-81